Time;durP1;ratioP1;P1;durP2;ratioP2;P2;SDS_P1;SDS_P2;PMS_P1;PMS_P2;Temp;Humidity;BMP_temperature;BMP_pressure;BME280_temperature;BME280_humidity;BME280_pressure;Samples;Min_cycle;Max_cycle;Signal;HPM_P1;HPM_P2
2021/05/08 00:04:44;;;;;;;1.50;0.97;;;22.00;42.70;;;;;;10456100;28;20221;-15
2021/05/08 00:10:08;;;;;;;0.83;0.83;;;22.00;42.80;;;;;;10463763;28;20208;-15
2021/05/08 00:15:30;;;;;;;1.63;1.03;;;22.00;43.00;;;;;;10449205;28;20595;-15
2021/05/08 00:20:53;;;;;;;1.33;0.93;;;22.00;42.80;;;;;;10423614;28;20201;-15
2021/05/08 00:26:14;;;;;;;1.20;0.93;;;22.00;42.70;;;;;;10421542;28;20217;-14
2021/05/08 00:31:36;;;;;;;2.43;1.10;;;22.00;42.60;;;;;;10451262;28;20610;-14
2021/05/08 00:36:58;;;;;;;1.13;0.90;;;22.00;42.50;;;;;;10453143;28;20290;-15
2021/05/08 00:42:20;;;;;;;1.40;0.97;;;22.10;42.60;;;;;;10457711;28;20197;-14
2021/05/08 00:47:45;;;;;;;1.93;0.90;;;22.10;42.60;;;;;;10460692;28;20213;-15
2021/05/08 00:53:09;;;;;;;1.60;1.00;;;22.00;42.70;;;;;;10463096;28;20220;-14
2021/05/08 00:58:31;;;;;;;1.40;0.90;;;22.00;42.80;;;;;;10460330;28;20225;-15
2021/05/08 01:03:53;;;;;;;2.80;0.90;;;22.00;42.50;;;;;;10460588;28;20197;-14
2021/05/08 01:09:15;;;;;;;1.30;0.93;;;22.00;42.50;;;;;;10460668;28;20217;-14
2021/05/08 01:14:37;;;;;;;1.07;0.90;;;21.90;42.60;;;;;;10452539;28;20283;-15
2021/05/08 01:19:59;;;;;;;1.27;0.93;;;22.00;42.50;;;;;;10418275;28;20204;-15
2021/05/08 01:25:24;;;;;;;1.83;0.93;;;22.00;42.50;;;;;;10419096;28;20680;-17
2021/05/08 01:30:46;;;;;;;2.00;1.07;;;22.00;42.60;;;;;;10417992;28;20688;-15
2021/05/08 01:36:08;;;;;;;1.77;1.00;;;21.90;42.60;;;;;;10424032;28;20758;-14
2021/05/08 01:41:30;;;;;;;1.17;0.90;;;21.90;42.60;;;;;;10442500;28;20205;-17
2021/05/08 01:46:53;;;;;;;1.20;0.80;;;21.90;42.50;;;;;;10456785;28;20236;-18
2021/05/08 01:52:15;;;;;;;1.50;0.77;;;22.00;42.50;;;;;;10461032;28;20652;-16
2021/05/08 01:57:41;;;;;;;0.77;0.70;;;22.00;42.40;;;;;;10458320;28;20216;-14
2021/05/08 02:03:04;;;;;;;1.97;0.90;;;22.00;42.40;;;;;;10457415;28;20193;-15
2021/05/08 02:08:25;;;;;;;0.77;0.67;;;21.90;42.50;;;;;;10459309;28;20213;-13
2021/05/08 02:13:49;;;;;;;1.30;0.87;;;21.90;42.50;;;;;;10456756;28;20310;-16
2021/05/08 02:19:10;;;;;;;1.30;0.83;;;21.80;42.60;;;;;;10526445;22;20688;-15
2021/05/08 02:24:32;;;;;;;1.70;0.83;;;21.90;42.50;;;;;;10494360;28;20736;-14
2021/05/08 02:29:54;;;;;;;2.07;1.00;;;21.90;42.40;;;;;;10450324;28;20204;-14
2021/05/08 02:35:18;;;;;;;1.47;0.97;;;21.90;42.40;;;;;;10445093;28;20228;-15
2021/05/08 02:40:39;;;;;;;1.53;0.73;;;21.90;42.40;;;;;;10452287;28;20213;-14
2021/05/08 02:46:02;;;;;;;1.40;0.73;;;21.90;42.40;;;;;;10452378;28;20225;-14
2021/05/08 02:51:24;;;;;;;1.03;0.70;;;22.00;42.30;;;;;;10452721;28;20208;-15
2021/05/08 02:56:46;;;;;;;1.07;0.80;;;22.00;42.10;;;;;;10451872;28;20633;-14
2021/05/08 03:02:09;;;;;;;1.17;0.97;;;22.00;42.10;;;;;;10452144;28;20216;-15
2021/05/08 03:07:31;;;;;;;1.40;0.90;;;21.90;42.80;;;;;;10451935;28;20675;-14
2021/05/08 03:12:52;;;;;;;1.40;0.90;;;22.00;42.20;;;;;;10447284;28;20198;-15
2021/05/08 03:18:15;;;;;;;0.93;0.77;;;22.00;42.10;;;;;;10422643;28;20236;-15
2021/05/08 03:23:36;;;;;;;0.80;0.60;;;21.90;42.20;;;;;;10411401;28;20206;-15
2021/05/08 03:28:58;;;;;;;1.27;0.70;;;21.90;42.20;;;;;;10411332;28;20220;-17
2021/05/08 03:34:20;;;;;;;1.23;0.70;;;21.90;42.30;;;;;;10410631;28;20189;-16
2021/05/08 03:39:42;;;;;;;1.17;0.70;;;21.90;42.10;;;;;;10411799;28;20668;-14
2021/05/08 03:45:04;;;;;;;1.10;0.70;;;21.90;42.20;;;;;;10419707;28;20558;-15
2021/05/08 03:50:27;;;;;;;1.10;0.70;;;22.00;42.10;;;;;;10450022;28;20193;-13
2021/05/08 03:55:50;;;;;;;1.13;0.70;;;22.00;42.00;;;;;;10459767;28;20217;-14
2021/05/08 04:01:11;;;;;;;0.77;0.70;;;22.00;42.00;;;;;;10459636;28;20286;-15
2021/05/08 04:06:34;;;;;;;0.97;0.80;;;22.00;42.00;;;;;;10459332;28;20217;-15
2021/05/08 04:11:55;;;;;;;0.70;0.70;;;22.00;42.00;;;;;;10459732;28;20197;-15
2021/05/08 04:17:17;;;;;;;1.00;0.70;;;21.90;42.10;;;;;;10433593;28;20225;-16
2021/05/08 04:22:39;;;;;;;1.03;0.70;;;21.90;42.20;;;;;;10418091;28;20590;-15
2021/05/08 04:28:01;;;;;;;0.70;0.70;;;21.90;42.00;;;;;;10429265;28;20221;-14
2021/05/08 04:33:22;;;;;;;0.90;0.67;;;21.90;41.90;;;;;;10417897;28;20197;-15
2021/05/08 04:38:45;;;;;;;1.13;0.70;;;21.90;41.90;;;;;;10417221;28;20622;-16
2021/05/08 04:44:07;;;;;;;0.93;0.73;;;22.00;41.90;;;;;;10417593;28;20197;-16
2021/05/08 04:49:28;;;;;;;1.57;0.90;;;22.10;41.70;;;;;;10416362;28;20216;-15
2021/05/08 04:54:51;;;;;;;0.60;0.60;;;22.10;41.70;;;;;;10416665;28;20210;-15
2021/05/08 05:00:14;;;;;;;0.97;0.60;;;22.20;41.80;;;;;;10415022;28;20209;-16
2021/05/08 05:05:36;;;;;;;0.87;0.70;;;22.10;41.90;;;;;;10415499;28;20217;-15
2021/05/08 05:10:58;;;;;;;0.70;0.60;;;22.10;41.70;;;;;;10416685;28;20202;-15
2021/05/08 05:16:20;;;;;;;1.37;0.90;;;22.10;41.70;;;;;;10435504;28;20233;-14
2021/05/08 05:21:42;;;;;;;0.70;0.60;;;22.10;41.80;;;;;;10415998;28;20614;-15
2021/05/08 05:27:05;;;;;;;0.70;0.63;;;22.10;41.80;;;;;;10415898;28;20217;-16
2021/05/08 05:32:26;;;;;;;1.13;0.60;;;22.20;41.60;;;;;;10414492;28;20202;-15
2021/05/08 05:37:48;;;;;;;0.57;0.57;;;22.10;41.70;;;;;;10414423;28;20228;-16
2021/05/08 05:43:11;;;;;;;0.63;0.63;;;22.10;41.80;;;;;;10415048;28;20197;-14
2021/05/08 05:48:32;;;;;;;1.20;0.80;;;22.20;41.80;;;;;;10418924;28;20468;-15
2021/05/08 05:53:56;;;;;;;0.80;0.67;;;22.20;41.70;;;;;;10449484;28;20204;-14
2021/05/08 05:59:19;;;;;;;1.07;0.60;;;22.20;41.80;;;;;;10454871;28;20244;-13
2021/05/08 06:04:40;;;;;;;2.63;0.80;;;22.20;41.70;;;;;;10454489;28;20569;-15
2021/05/08 06:10:02;;;;;;;0.90;0.60;;;21.80;40.30;;;;;;10454668;28;20203;-15
2021/05/08 06:15:25;;;;;;;0.80;0.60;;;21.90;42.20;;;;;;10447176;28;20271;-16
2021/05/08 06:20:46;;;;;;;0.50;0.50;;;22.00;41.70;;;;;;10412660;28;20206;-14
2021/05/08 06:26:08;;;;;;;0.90;0.67;;;22.10;41.60;;;;;;10412775;28;20218;-12
2021/05/08 06:31:31;;;;;;;0.80;0.60;;;22.10;41.70;;;;;;10426520;28;20198;-15
2021/05/08 06:36:52;;;;;;;1.37;0.50;;;22.20;41.60;;;;;;10411646;28;20222;-15
2021/05/08 06:42:14;;;;;;;1.03;0.60;;;22.10;42.00;;;;;;10411219;28;20201;-15
2021/05/08 06:47:38;;;;;;;1.17;0.60;;;22.10;42.10;;;;;;10451941;28;20224;-15
2021/05/08 06:53:00;;;;;;;1.43;1.33;;;22.10;42.10;;;;;;10452567;28;20223;-15
2021/05/08 06:58:22;;;;;;;4.03;2.17;;;21.90;37.70;;;;;;10451754;28;20299;-15
2021/05/08 07:03:44;;;;;;;3.60;1.70;;;21.20;36.60;;;;;;10451558;28;20549;-16
2021/05/08 07:09:06;;;;;;;3.93;1.97;;;20.90;36.90;;;;;;10445965;28;20214;-14
2021/05/08 07:14:27;;;;;;;4.67;1.80;;;20.70;37.30;;;;;;10433820;28;20193;-13
2021/05/08 07:19:50;;;;;;;4.50;1.40;;;20.60;37.70;;;;;;10451947;28;20207;-16
2021/05/08 07:25:12;;;;;;;5.27;1.57;;;20.60;38.10;;;;;;10451272;28;20216;-15
2021/05/08 07:30:34;;;;;;;4.03;1.37;;;21.00;38.30;;;;;;10450041;28;20197;-15
2021/05/08 07:35:56;;;;;;;3.87;1.30;;;21.20;38.20;;;;;;10446700;28;20216;-15
2021/05/08 07:41:18;;;;;;;3.20;1.30;;;21.10;36.90;;;;;;10445817;28;20202;-15
2021/05/08 07:46:40;;;;;;;3.77;1.53;;;21.30;37.50;;;;;;10450560;28;20675;-14
2021/05/08 07:52:02;;;;;;;3.30;1.43;;;21.30;36.20;;;;;;10430988;28;20206;-14
2021/05/08 07:57:24;;;;;;;4.23;1.10;;;21.30;36.10;;;;;;10409475;28;20271;-15
2021/05/08 08:02:46;;;;;;;1.63;0.90;;;21.30;37.00;;;;;;10423082;28;20584;-14
2021/05/08 08:08:08;;;;;;;2.80;0.90;;;21.20;34.10;;;;;;10444342;28;20221;-14
2021/05/08 08:13:30;;;;;;;2.90;0.90;;;21.40;36.70;;;;;;10416388;28;20197;-13
2021/05/08 08:18:51;;;;;;;4.23;1.30;;;21.50;37.60;;;;;;10406007;28;20582;-16
2021/05/08 08:24:14;;;;;;;2.67;0.80;;;21.60;37.70;;;;;;10406016;28;20202;-15
2021/05/08 08:29:36;;;;;;;2.33;0.87;;;21.60;37.90;;;;;;10414974;28;20251;-16
2021/05/08 08:34:57;;;;;;;1.80;0.80;;;21.60;37.40;;;;;;10416078;28;20206;-16
2021/05/08 08:40:21;;;;;;;4.93;1.10;;;21.60;36.50;;;;;;10458421;22;20337;-15
2021/05/08 08:45:44;;;;;;;4.00;0.87;;;21.50;36.30;;;;;;10495528;28;20581;-17
2021/05/08 08:51:06;;;;;;;2.47;0.87;;;21.50;34.50;;;;;;10504740;28;20220;-16
2021/05/08 08:56:33;;;;;;;4.23;1.00;;;21.50;34.60;;;;;;10493647;28;20225;-13
2021/05/08 09:01:55;;;;;;;2.87;0.70;;;21.60;35.60;;;;;;10466408;28;20220;-13
2021/05/08 09:07:18;;;;;;;2.63;1.00;;;21.60;35.70;;;;;;10464363;28;20204;-13
2021/05/08 09:12:47;;;;;;;2.20;1.00;;;21.70;36.00;;;;;;10470307;28;20576;-17
2021/05/08 09:18:10;;;;;;;2.23;0.90;;;21.60;34.60;;;;;;10507694;28;20215;-14
2021/05/08 09:23:33;;;;;;;2.13;1.10;;;21.60;36.10;;;;;;10505384;28;20216;-13
2021/05/08 09:28:56;;;;;;;2.80;1.07;;;21.70;35.20;;;;;;10470790;28;20193;-15
2021/05/08 09:34:18;;;;;;;2.60;1.33;;;21.70;32.60;;;;;;10463699;28;20561;-17
2021/05/08 09:39:40;;;;;;;3.43;0.80;;;21.40;31.50;;;;;;10461682;28;20217;-14
2021/05/08 09:45:03;;;;;;;3.73;1.07;;;21.40;35.00;;;;;;10460072;28;20233;-14
2021/05/08 09:50:25;;;;;;;4.43;1.23;;;21.60;35.60;;;;;;10498352;28;20216;-15
2021/05/08 09:55:47;;;;;;;2.57;1.07;;;21.40;35.90;;;;;;10500365;28;20220;-13
2021/05/08 10:01:17;;;;;;;2.03;1.00;;;21.60;35.10;;;;;;10503657;28;20209;-16
2021/05/08 10:06:39;;;;;;;1.63;0.73;;;21.50;33.50;;;;;;10493107;28;20242;-16
2021/05/08 10:12:03;;;;;;;2.23;1.20;;;21.50;35.30;;;;;;10503219;28;20220;-16
2021/05/08 10:17:27;;;;;;;1.87;0.80;;;21.60;34.20;;;;;;10501060;28;20216;-14
2021/05/08 10:22:50;;;;;;;2.67;1.10;;;21.60;34.40;;;;;;10495404;28;20220;-15
2021/05/08 10:28:12;;;;;;;2.47;1.13;;;21.60;32.40;;;;;;10474028;28;20196;-14
2021/05/08 10:33:35;;;;;;;3.50;1.33;;;21.60;33.90;;;;;;10496758;28;20250;-17
2021/05/08 10:39:05;;;;;;;2.37;1.03;;;21.50;33.20;;;;;;10498267;28;20299;-15
2021/05/08 10:44:51;;;;;;;4.40;1.47;;;21.60;33.70;;;;;;10499986;28;20262;-13
2021/05/08 10:50:23;;;;;;;1.20;0.80;;;21.50;30.70;;;;;;10493842;28;20196;-15
2021/05/08 10:55:51;;;;;;;2.77;1.27;;;21.60;32.70;;;;;;10499547;28;20200;-14
2021/05/08 11:01:12;;;;;;;3.33;0.93;;;21.60;31.40;;;;;;10499237;28;20285;-14
2021/05/08 11:06:35;;;;;;;2.77;1.00;;;21.70;33.10;;;;;;10498400;28;20593;-13
2021/05/08 11:11:57;;;;;;;5.20;2.30;;;21.70;34.40;;;;;;10497860;28;20220;-16
2021/05/08 11:17:18;;;;;;;5.60;2.90;;;21.70;33.40;;;;;;10496978;28;20242;-14
2021/05/08 11:22:41;;;;;;;2.37;1.80;;;21.80;33.70;;;;;;10492473;28;20235;-12
2021/05/08 11:28:08;;;;;;;2.67;2.00;;;22.00;32.50;;;;;;10493682;28;20200;-15
2021/05/08 11:33:30;;;;;;;3.07;1.50;;;22.00;32.00;;;;;;10497177;28;20216;-14
2021/05/08 11:38:52;;;;;;;2.87;1.60;;;22.00;33.90;;;;;;10495811;28;20223;-15
2021/05/08 11:44:26;;;;;;;3.53;1.40;;;21.90;34.30;;;;;;10495498;28;20224;-13
2021/05/08 11:49:55;;;;;;;2.40;1.40;;;21.80;35.10;;;;;;10495258;28;20193;-14
2021/05/08 11:55:18;;;;;;;2.57;1.20;;;21.80;35.00;;;;;;10494502;28;20213;-14
2021/05/08 12:00:40;;;;;;;2.13;1.17;;;21.90;35.40;;;;;;10520700;28;20708;-15
2021/05/08 12:06:02;;;;;;;2.03;1.37;;;21.90;35.30;;;;;;10533150;28;20196;-17
2021/05/08 12:11:25;;;;;;;2.03;1.13;;;21.90;34.60;;;;;;10503628;28;20220;-15
2021/05/08 12:16:46;;;;;;;2.40;1.57;;;22.00;34.60;;;;;;10501434;28;20208;-14
2021/05/08 12:22:09;;;;;;;2.27;1.20;;;21.80;33.50;;;;;;10467298;28;20706;-14
2021/05/08 12:27:31;;;;;;;2.53;1.67;;;21.70;33.90;;;;;;10471695;28;20193;-17
2021/05/08 12:32:53;;;;;;;2.03;1.30;;;21.60;33.10;;;;;;10460123;28;20360;-14
2021/05/08 12:38:25;;;;;;;2.50;1.37;;;21.70;32.80;;;;;;10481305;28;20212;-17
2021/05/08 12:43:49;;;;;;;3.20;1.73;;;21.70;32.00;;;;;;10502326;28;20683;-15
2021/05/08 12:49:11;;;;;;;2.57;1.27;;;21.60;31.40;;;;;;10504046;28;20272;-13
2021/05/08 12:54:32;;;;;;;2.67;1.50;;;21.60;31.20;;;;;;10504379;28;20603;-14
2021/05/08 12:59:59;;;;;;;3.33;1.73;;;21.60;31.20;;;;;;10512255;28;20216;-14
2021/05/08 13:05:21;;;;;;;2.60;1.60;;;21.70;31.10;;;;;;10496189;28;20693;-14
2021/05/08 13:10:44;;;;;;;3.57;1.50;;;21.70;32.40;;;;;;10472427;28;20246;-14
2021/05/08 13:16:06;;;;;;;1.80;1.30;;;21.70;32.60;;;;;;10500240;28;20220;-14
2021/05/08 13:21:28;;;;;;;2.83;1.30;;;21.70;31.80;;;;;;10500773;28;20223;-13
2021/05/08 13:26:49;;;;;;;2.47;1.60;;;21.60;31.90;;;;;;10493994;28;20306;-14
2021/05/08 13:32:11;;;;;;;4.37;1.70;;;21.60;31.50;;;;;;10498691;28;20216;-14
2021/05/08 13:37:33;;;;;;;1.97;1.30;;;21.50;30.10;;;;;;10498614;28;20243;-15
2021/05/08 13:42:55;;;;;;;2.50;1.27;;;21.50;32.00;;;;;;10498395;28;20216;-14
2021/05/08 13:48:17;;;;;;;2.23;1.10;;;21.70;32.20;;;;;;10497519;28;20238;-15
2021/05/08 13:53:39;;;;;;;1.87;1.30;;;21.70;31.80;;;;;;10466719;28;20232;-14
2021/05/08 13:59:01;;;;;;;2.73;1.57;;;21.60;31.00;;;;;;10496682;28;20224;-13
2021/05/08 14:04:23;;;;;;;2.70;1.57;;;21.50;33.00;;;;;;10540379;28;20694;-15
2021/05/08 14:09:45;;;;;;;2.40;1.20;;;21.60;31.50;;;;;;10503720;28;20196;-14
2021/05/08 14:15:08;;;;;;;3.80;1.53;;;21.70;32.40;;;;;;10500233;28;20203;-15
2021/05/08 14:20:30;;;;;;;1.83;0.80;;;21.60;31.60;;;;;;10502258;28;20699;-15
2021/05/08 14:25:52;;;;;;;2.90;1.60;;;21.50;33.90;;;;;;10497804;28;20201;-14
2021/05/08 14:31:13;;;;;;;2.57;1.70;;;21.60;33.50;;;;;;10494751;28;20220;-14
2021/05/08 14:36:36;;;;;;;3.20;1.67;;;21.50;30.80;;;;;;10496855;28;20215;-15
2021/05/08 14:41:57;;;;;;;2.73;1.77;;;21.50;29.00;;;;;;10527368;22;20246;-14
2021/05/08 14:47:19;;;;;;;1.60;1.50;;;21.50;30.00;;;;;;10494426;28;20207;-14
2021/05/08 14:52:41;;;;;;;2.07;1.57;;;21.50;31.10;;;;;;10494957;28;20686;-14
2021/05/08 14:58:03;;;;;;;4.03;1.80;;;21.50;30.00;;;;;;10488155;28;20220;-13
2021/05/08 15:03:25;;;;;;;1.97;1.50;;;21.40;29.70;;;;;;10489716;28;20216;-16
2021/05/08 15:08:47;;;;;;;3.60;1.80;;;21.50;31.00;;;;;;10493061;28;20671;-15
2021/05/08 15:14:09;;;;;;;2.97;1.47;;;21.50;30.50;;;;;;10490542;28;20216;-15
2021/05/08 15:19:30;;;;;;;2.00;1.43;;;21.50;30.40;;;;;;10491970;28;20211;-15
2021/05/08 15:24:53;;;;;;;2.23;1.50;;;21.50;30.30;;;;;;10491133;28;20686;-17
2021/05/08 15:30:16;;;;;;;3.13;1.47;;;21.50;29.90;;;;;;10489593;28;20202;-17
2021/05/08 15:35:37;;;;;;;2.50;1.10;;;21.50;31.60;;;;;;10491058;28;20227;-15
2021/05/08 15:41:01;;;;;;;3.67;1.90;;;21.60;31.40;;;;;;10490467;28;20200;-16
2021/05/08 15:46:28;;;;;;;3.00;2.43;;;21.50;30.30;;;;;;10491151;28;20544;-15
2021/05/08 15:51:49;;;;;;;4.70;1.80;;;21.50;29.10;;;;;;10450277;28;20208;-16
2021/05/08 15:57:12;;;;;;;3.60;1.50;;;21.30;29.80;;;;;;10473835;28;20301;-14
2021/05/08 16:02:34;;;;;;;2.73;1.80;;;21.30;30.50;;;;;;10492291;28;20217;-15
2021/05/08 16:07:55;;;;;;;2.53;1.30;;;21.30;30.00;;;;;;10491366;28;20196;-15
2021/05/08 16:13:18;;;;;;;2.10;1.27;;;21.30;30.80;;;;;;10491667;28;20223;-16
2021/05/08 16:18:39;;;;;;;3.67;1.17;;;21.40;32.10;;;;;;10491115;28;20691;-16
2021/05/08 16:24:01;;;;;;;3.90;1.40;;;21.50;31.80;;;;;;10491442;28;20262;-15
2021/05/08 16:29:23;;;;;;;2.37;1.40;;;21.70;31.90;;;;;;10481918;28;20204;-15
2021/05/08 16:34:45;;;;;;;3.63;1.33;;;21.70;32.00;;;;;;10490766;28;20606;-15
2021/05/08 16:40:09;;;;;;;1.77;1.17;;;21.70;32.00;;;;;;10491218;28;20220;-14
2021/05/08 16:45:32;;;;;;;1.53;1.13;;;21.60;32.50;;;;;;10490947;28;20224;-16
2021/05/08 16:50:53;;;;;;;1.10;1.00;;;21.60;32.90;;;;;;10490474;28;20665;-16
2021/05/08 16:56:15;;;;;;;3.37;1.47;;;21.50;33.40;;;;;;10496050;28;20223;-15
2021/05/08 17:01:38;;;;;;;2.10;1.20;;;21.70;33.00;;;;;;10492761;28;20216;-16
2021/05/08 17:07:00;;;;;;;2.30;1.23;;;21.60;32.80;;;;;;10496667;28;20199;-15
2021/05/08 17:12:22;;;;;;;1.50;1.30;;;21.70;33.30;;;;;;10497616;28;20274;-15
2021/05/08 17:17:44;;;;;;;5.87;1.50;;;21.80;33.70;;;;;;10498713;28;20663;-15
2021/05/08 17:23:06;;;;;;;2.93;1.40;;;21.70;34.00;;;;;;10496983;28;20266;-14
2021/05/08 17:28:27;;;;;;;1.70;1.20;;;21.70;33.80;;;;;;10491298;28;20566;-15
2021/05/08 17:33:50;;;;;;;1.20;1.10;;;21.40;33.80;;;;;;10490267;28;20220;-16
2021/05/08 17:39:11;;;;;;;2.03;1.10;;;21.30;33.70;;;;;;10511122;28;20243;-15
2021/05/08 17:44:33;;;;;;;1.43;1.30;;;21.50;34.20;;;;;;10536893;28;20231;-15
2021/05/08 17:49:55;;;;;;;1.67;1.27;;;21.50;34.50;;;;;;10495182;28;20184;-16
2021/05/08 17:55:17;;;;;;;3.20;1.00;;;21.50;34.80;;;;;;10491832;28;20224;-15
2021/05/08 18:00:39;;;;;;;2.83;1.00;;;21.50;35.00;;;;;;10493701;28;20637;-15
2021/05/08 18:06:01;;;;;;;2.53;1.20;;;21.50;35.40;;;;;;10486516;28;20207;-15
2021/05/08 18:11:23;;;;;;;1.53;0.90;;;21.50;36.30;;;;;;10495979;28;20216;-15
2021/05/08 18:16:44;;;;;;;1.83;0.90;;;21.50;36.80;;;;;;10494569;28;20265;-17
2021/05/08 18:22:07;;;;;;;1.40;0.80;;;21.60;36.90;;;;;;10495144;28;20235;-14
2021/05/08 18:27:28;;;;;;;1.23;0.87;;;21.50;37.10;;;;;;10519331;28;20643;-15
2021/05/08 18:32:50;;;;;;;1.80;0.80;;;21.60;37.50;;;;;;10463696;28;20217;-16
2021/05/08 18:38:12;;;;;;;1.73;1.10;;;21.50;37.90;;;;;;10447503;28;20212;-16
2021/05/08 18:43:34;;;;;;;2.23;1.17;;;21.60;38.10;;;;;;10446768;28;20600;-15
2021/05/08 18:48:55;;;;;;;2.27;1.50;;;21.40;38.40;;;;;;10470863;28;20666;-14
2021/05/08 18:54:18;;;;;;;2.33;1.90;;;21.40;38.90;;;;;;10491033;28;20411;-15
2021/05/08 18:59:40;;;;;;;2.03;1.43;;;21.60;37.70;;;;;;10490213;28;20687;-15
2021/05/08 19:05:01;;;;;;;2.30;1.43;;;20.50;40.30;;;;;;10492680;28;20212;-15
2021/05/08 19:10:24;;;;;;;1.97;1.07;;;20.30;41.10;;;;;;10493014;28;20716;-15
2021/05/08 19:15:47;;;;;;;2.17;0.90;;;20.50;41.50;;;;;;10493192;28;20526;-17
2021/05/08 19:21:08;;;;;;;2.43;1.00;;;20.60;41.50;;;;;;10489444;28;20426;-14
2021/05/08 19:26:31;;;;;;;2.57;0.83;;;21.20;40.10;;;;;;10492672;28;20249;-13
2021/05/08 19:31:54;;;;;;;1.90;0.80;;;22.20;38.40;;;;;;10474482;28;20224;-15
2021/05/08 19:37:15;;;;;;;2.43;0.80;;;22.90;37.00;;;;;;10450539;28;20213;-16
2021/05/08 19:42:39;;;;;;;1.43;0.70;;;23.50;36.20;;;;;;10450878;28;20591;-14
2021/05/08 19:48:00;;;;;;;1.17;0.70;;;23.90;35.70;;;;;;10449661;28;20572;-15
2021/05/08 19:53:22;;;;;;;0.90;0.63;;;24.10;35.50;;;;;;10464462;28;20572;-15
2021/05/08 19:58:44;;;;;;;1.07;0.80;;;24.30;35.30;;;;;;10491992;28;20294;-15
2021/05/08 20:04:06;;;;;;;0.40;0.40;;;24.60;35.00;;;;;;10491840;28;20575;-14
2021/05/08 20:09:28;;;;;;;1.10;0.57;;;24.90;34.50;;;;;;10491235;28;20431;-15
2021/05/08 20:14:52;;;;;;;1.00;0.80;;;25.00;34.40;;;;;;10492001;28;20691;-14
2021/05/08 20:20:15;;;;;;;4.87;0.67;;;25.10;34.50;;;;;;10491491;28;20243;-16
2021/05/08 20:25:37;;;;;;;0.70;0.50;;;25.20;34.40;;;;;;10489106;28;20722;-16
2021/05/08 20:30:59;;;;;;;0.80;0.70;;;25.20;34.40;;;;;;10494362;28;20211;-15
2021/05/08 20:36:21;;;;;;;1.53;0.80;;;25.20;34.50;;;;;;10498066;28;20594;-14
2021/05/08 20:41:44;;;;;;;0.80;0.60;;;25.20;34.70;;;;;;10498248;28;20721;-15
2021/05/08 20:47:06;;;;;;;0.70;0.70;;;25.30;34.50;;;;;;10497338;28;20203;-15
2021/05/08 20:52:28;;;;;;;0.80;0.70;;;25.40;34.40;;;;;;10497245;28;20224;-16
2021/05/08 20:57:50;;;;;;;0.73;0.50;;;25.50;34.60;;;;;;10511466;22;20232;-15
2021/05/08 21:03:13;;;;;;;1.23;0.83;;;25.50;34.60;;;;;;10488866;28;20201;-15
2021/05/08 21:08:35;;;;;;;1.33;0.70;;;25.50;34.80;;;;;;10500615;28;20231;-14
2021/05/08 21:13:57;;;;;;;1.40;0.63;;;25.40;34.90;;;;;;10498637;28;20204;-14
2021/05/08 21:19:19;;;;;;;2.63;0.60;;;25.50;34.90;;;;;;10459127;28;20224;-17
2021/05/08 21:24:41;;;;;;;0.83;0.63;;;24.00;35.80;;;;;;10460666;28;20200;-16
2021/05/08 21:30:03;;;;;;;1.03;0.70;;;23.30;37.60;;;;;;10462288;28;20250;-14
2021/05/08 21:35:25;;;;;;;1.07;0.60;;;22.80;38.60;;;;;;10466404;28;20193;-14
2021/05/08 21:40:48;;;;;;;0.80;0.73;;;22.50;39.30;;;;;;10471069;28;20189;-17
2021/05/08 21:46:10;;;;;;;0.70;0.70;;;22.40;39.60;;;;;;10469504;28;20243;-16
2021/05/08 21:51:32;;;;;;;0.73;0.57;;;22.30;39.90;;;;;;10502438;28;20200;-14
2021/05/08 21:56:55;;;;;;;0.80;0.50;;;22.20;40.20;;;;;;10502379;28;20220;-13
2021/05/08 22:02:16;;;;;;;0.57;0.50;;;22.00;40.40;;;;;;10497139;28;20201;-15
2021/05/08 22:07:39;;;;;;;0.93;0.70;;;22.00;40.50;;;;;;10497874;28;20216;-13
2021/05/08 22:13:00;;;;;;;1.30;0.67;;;21.90;40.90;;;;;;10492984;28;20199;-16
2021/05/08 22:18:22;;;;;;;0.87;0.80;;;21.70;41.00;;;;;;10463259;28;20220;-14
2021/05/08 22:23:46;;;;;;;0.93;0.70;;;21.80;41.10;;;;;;10461551;28;20679;-15
2021/05/08 22:29:07;;;;;;;0.90;0.57;;;21.90;40.80;;;;;;10494398;28;20220;-16
2021/05/08 22:34:29;;;;;;;0.70;0.60;;;21.80;41.00;;;;;;10500866;28;20674;-15
2021/05/08 22:39:51;;;;;;;1.13;0.70;;;21.70;41.20;;;;;;10501435;28;20223;-14
2021/05/08 22:45:14;;;;;;;0.73;0.60;;;21.70;41.20;;;;;;10481612;28;20201;-15
2021/05/08 22:50:37;;;;;;;0.50;0.50;;;21.70;41.20;;;;;;10459643;28;20189;-14
2021/05/08 22:56:00;;;;;;;0.83;0.63;;;21.60;41.40;;;;;;10459398;28;20225;-14
2021/05/08 23:01:21;;;;;;;0.47;0.40;;;21.60;41.40;;;;;;10458523;28;20196;-13
2021/05/08 23:06:43;;;;;;;1.70;0.70;;;21.60;41.40;;;;;;10457376;28;20679;-14
2021/05/08 23:12:07;;;;;;;1.03;0.67;;;21.60;41.50;;;;;;10458043;28;20722;-13
2021/05/08 23:17:28;;;;;;;0.77;0.70;;;21.60;41.60;;;;;;10488885;28;20216;-14
2021/05/08 23:22:50;;;;;;;1.23;0.80;;;21.60;41.70;;;;;;10482376;28;20667;-16
2021/05/08 23:28:13;;;;;;;0.80;0.60;;;21.50;41.60;;;;;;10497922;28;20212;-17
2021/05/08 23:33:34;;;;;;;1.00;0.67;;;21.50;41.80;;;;;;10497888;28;20606;-15
2021/05/08 23:38:56;;;;;;;1.33;0.80;;;21.50;41.80;;;;;;10495970;28;20726;-17
2021/05/08 23:44:18;;;;;;;0.80;0.70;;;21.70;41.70;;;;;;10496820;28;20192;-13
2021/05/08 23:49:40;;;;;;;0.50;0.50;;;21.70;41.60;;;;;;10498368;28;20220;-17
2021/05/08 23:55:02;;;;;;;0.70;0.60;;;21.70;41.60;;;;;;10496827;28;20262;-14
